Time;durP1;ratioP1;P1;durP2;ratioP2;P2;SDS_P1;SDS_P2;PMS_P1;PMS_P2;Temp;Humidity;BMP_temperature;BMP_pressure;BME280_temperature;BME280_humidity;BME280_pressure;Samples;Min_cycle;Max_cycle;Signal;HPM_P1;HPM_P2
2023/06/14 00:04:41;;;;;;;;;15.25;15.25;;;;;26.86;31.14;100395.94;4976568;28;45624;-80
2023/06/14 00:07:09;;;;;;;;;16.25;16.25;;;;;26.84;31.86;100396.16;4957519;28;45911;-80
2023/06/14 00:09:35;;;;;;;;;18.75;17.50;;;;;26.81;31.67;100401.97;4976491;28;45554;-82
2023/06/14 00:12:00;;;;;;;;;18.75;17.75;;;;;26.71;31.66;100394.41;4976310;28;45814;-80
2023/06/14 00:14:26;;;;;;;;;16.75;16.00;;;;;26.71;31.85;100394.41;4975319;28;45415;-81
2023/06/14 00:16:52;;;;;;;;;17.00;16.25;;;;;26.67;31.53;100397.72;4975195;28;45696;-81
2023/06/14 00:19:19;;;;;;;;;14.25;14.00;;;;;26.57;31.60;100387.47;4974597;28;45581;-81
2023/06/14 00:21:45;;;;;;;;;17.00;15.75;;;;;26.48;32.25;100385.28;4974637;28;46828;-80
2023/06/14 00:24:10;;;;;;;;;17.50;16.00;;;;;26.54;32.05;100403.22;4975099;28;45780;-80
2023/06/14 00:26:36;;;;;;;;;17.50;16.00;;;;;26.44;32.04;100384.91;4974919;28;45747;-80
2023/06/14 00:29:01;;;;;;;;;19.75;18.50;;;;;26.48;32.18;100402.22;4973403;28;46290;-80
2023/06/14 00:34:48;;;;;;;;;18.00;16.50;;;;;26.29;32.46;100398.63;4974628;28;45761;-79
2023/06/14 00:37:14;;;;;;;;;20.00;18.75;;;;;26.28;33.00;100407.75;4974568;28;45481;-80
2023/06/14 00:39:39;;;;;;;;;16.75;15.75;;;;;26.24;32.81;100403.81;4974309;28;46196;-80
2023/06/14 00:42:05;;;;;;;;;17.50;16.25;;;;;26.19;32.93;100408.16;4974452;28;45695;-80
2023/06/14 00:44:31;;;;;;;;;19.25;17.25;;;;;26.13;33.13;100406.34;4974537;28;45759;-79
2023/06/14 00:46:57;;;;;;;;;16.75;15.75;;;;;26.00;32.94;100395.69;4974323;28;45769;-80
2023/06/14 00:49:22;;;;;;;;;15.50;15.50;;;;;26.02;32.95;100410.53;4956652;28;47618;-80
2023/06/14 00:51:48;;;;;;;;;19.25;17.75;;;;;25.98;33.41;100401.25;4974284;28;45850;-80
2023/06/14 00:54:13;;;;;;;;;18.00;17.50;;;;;25.92;33.50;100402.94;4974500;28;45710;-80
2023/06/14 00:56:40;;;;;;;;;18.25;16.00;;;;;25.91;33.94;100414.72;4974562;28;45643;-80
2023/06/14 00:59:05;;;;;;;;;16.50;16.50;;;;;25.76;33.68;100392.69;4974339;28;46397;-80
2023/06/14 01:04:53;;;;;;;;;16.50;16.50;;;;;25.76;33.93;100419.53;4974265;28;45592;-80
2023/06/14 01:07:28;;;;;;;;;17.50;17.00;;;;;25.71;34.14;100415.84;4974191;28;45866;-81
2023/06/14 01:10:28;;;;;;;;;16.25;16.25;;;;;25.67;34.37;100411.94;4974130;28;46335;-81
2023/06/14 01:13:17;;;;;;;;;19.50;15.50;;;;;25.61;34.38;100410.91;4894783;29;46218;-80
2023/06/14 01:15:43;;;;;;;;;17.75;17.00;;;;;25.56;34.31;100408.03;4894923;28;45639;-78
2023/06/14 01:18:17;;;;;;;;;16.50;15.00;;;;;25.50;34.54;100408.84;4895678;29;45805;-81
2023/06/14 01:20:44;;;;;;;;;14.75;13.50;;;;;25.40;34.42;100398.56;4896584;29;45897;-79
2023/06/14 01:23:12;;;;;;;;;16.50;15.00;;;;;25.37;34.47;100408.91;4895821;29;45782;-80
2023/06/14 01:25:38;;;;;;;;;17.25;16.75;;;;;25.39;34.71;100417.56;4895948;29;45750;-80
2023/06/14 01:28:10;;;;;;;;;18.75;18.00;;;;;25.35;35.05;100421.69;4879345;29;45753;-79
2023/06/14 01:30:44;;;;;;;;;17.50;16.50;;;;;25.28;35.05;100412.81;4894827;29;46801;-81
2023/06/14 01:33:12;;;;;;;;;19.00;17.75;;;;;25.24;35.32;100417.81;4893822;29;46066;-81
2023/06/14 01:35:38;;;;;;;;;15.75;15.00;;;;;25.20;35.54;100411.22;4894785;29;45838;-80
2023/06/14 01:38:05;;;;;;;;;15.25;15.00;;;;;25.06;35.21;100398.84;4894795;29;45949;-80
2023/06/14 01:40:32;;;;;;;;;16.75;16.00;;;;;24.96;35.71;100396.59;4894890;29;45750;-81
2023/06/14 01:42:59;;;;;;;;;14.50;13.50;;;;;24.97;35.34;100398.25;4894510;29;46405;-80
2023/06/14 01:45:24;;;;;;;;;17.25;17.00;;;;;24.96;35.43;100404.63;4894580;29;45727;-80
2023/06/14 01:47:50;;;;;;;;;16.25;15.25;;;;;24.97;35.86;100411.66;4912770;28;45845;-80
2023/06/14 01:50:15;;;;;;;;;19.00;16.75;;;;;24.76;35.29;100378.84;4973593;28;46427;-80
2023/06/14 01:52:41;;;;;;;;;14.00;13.50;;;;;24.91;35.91;100412.47;4973141;28;46115;-79
2023/06/14 01:55:07;;;;;;;;;15.75;15.00;;;;;24.75;35.89;100393.25;4973426;28;45485;-80
2023/06/14 01:57:33;;;;;;;;;19.50;17.50;;;;;24.83;36.27;100411.84;4973382;28;45768;-79
2023/06/14 01:59:58;;;;;;;;;14.00;13.25;;;;;24.83;36.25;100417.19;4973593;28;46281;-79
2023/06/14 02:05:45;;;;;;;;;16.00;14.25;;;;;24.57;36.75;100391.19;4972720;28;45698;-80
2023/06/14 02:08:11;;;;;;;;;15.00;15.00;;;;;24.63;36.86;100415.31;4973481;28;45781;-80
2023/06/14 02:10:36;;;;;;;;;18.25;17.25;;;;;24.51;36.65;100406.22;4955502;28;46581;-81
2023/06/14 02:13:02;;;;;;;;;15.75;14.50;;;;;24.47;36.58;100404.16;4972902;28;46291;-79
2023/06/14 02:15:33;;;;;;;;;18.75;15.25;;;;;24.48;36.45;100421.91;4973090;28;45684;-79
2023/06/14 02:21:34;;;;;;;;;18.25;17.50;;;;;24.29;36.56;100406.63;4966323;28;46153;-79
2023/06/14 02:23:59;;;;;;;;;18.25;17.75;;;;;24.28;36.83;100423.72;4973136;28;45684;-81
2023/06/14 02:26:25;;;;;;;;;16.00;15.75;;;;;24.23;37.40;100425.16;4972914;28;45968;-81
2023/06/14 02:28:51;;;;;;;;;18.25;16.25;;;;;24.23;37.11;100435.03;4973483;28;45698;-81
2023/06/14 02:31:16;;;;;;;;;17.00;16.00;;;;;24.20;37.50;100424.72;4972750;28;46317;-80
2023/06/14 02:33:41;;;;;;;;;16.50;13.00;;;;;23.91;37.21;100387.53;4973161;28;45647;-80
2023/06/14 02:36:07;;;;;;;;;16.25;16.25;;;;;24.06;37.12;100418.47;4972872;28;45796;-81
2023/06/14 02:38:33;;;;;;;;;14.00;14.00;;;;;24.10;37.50;100426.94;4973206;28;45738;-80
2023/06/14 02:40:59;;;;;;;;;13.75;13.25;;;;;23.98;37.31;100420.50;4972822;28;45662;-80
2023/06/14 02:43:24;;;;;;;;;16.75;15.75;;;;;24.01;37.55;100436.16;4972889;28;45847;-79
2023/06/14 02:45:50;;;;;;;;;17.00;14.50;;;;;23.94;37.39;100417.41;4974229;28;45662;-80
2023/06/14 02:51:37;;;;;;;;;16.00;15.25;;;;;23.86;37.93;100430.16;4975786;28;46040;-80
2023/06/14 02:54:03;;;;;;;;;16.25;15.50;;;;;23.76;38.04;100420.63;4976151;28;46436;-80
2023/06/14 02:56:29;;;;;;;;;16.50;14.50;;;;;23.71;37.84;100430.25;4975865;28;45785;-81
2023/06/14 02:58:54;;;;;;;;;18.25;16.50;;;;;23.71;38.28;100441.78;4976385;28;45860;-79
2023/06/14 03:01:20;;;;;;;;;16.50;14.50;;;;;23.67;38.39;100443.22;4975987;28;46809;-81
2023/06/14 03:03:46;;;;;;;;;17.25;17.00;;;;;23.64;38.22;100434.78;4976011;28;45787;-80
2023/06/14 03:06:12;;;;;;;;;17.50;15.75;;;;;23.53;38.11;100427.31;4957837;28;45709;-79
2023/06/14 03:08:41;;;;;;;;;16.75;16.50;;;;;23.58;38.15;100441.75;4976326;28;45588;-79
2023/06/14 03:11:07;;;;;;;;;16.50;16.50;;;;;23.54;38.01;100435.09;4975584;28;46647;-79
2023/06/14 03:13:33;;;;;;;;;14.50;13.50;;;;;23.48;38.21;100427.91;4975658;28;46894;-80
2023/06/14 03:16:00;;;;;;;;;16.00;15.00;;;;;23.51;38.00;100440.88;4975644;28;45537;-79
2023/06/14 03:21:47;;;;;;;;;15.75;15.50;;;;;23.44;38.22;100439.97;4970315;28;46152;-79
2023/06/14 03:24:12;;;;;;;;;16.50;15.25;;;;;23.46;37.77;100448.66;4975222;28;46126;-80
2023/06/14 03:26:38;;;;;;;;;18.50;16.75;;;;;23.39;38.11;100445.91;4975599;28;45673;-79
2023/06/14 03:29:03;;;;;;;;;14.50;13.50;;;;;23.23;38.06;100437.34;4975706;28;45853;-79
2023/06/14 03:31:32;;;;;;;;;16.50;14.00;;;;;23.09;38.55;100423.09;4957752;28;47494;-79
2023/06/14 03:37:19;;;;;;;;;17.00;16.00;;;;;23.21;38.87;100471.50;4976252;28;45842;-79
2023/06/14 03:39:47;;;;;;;;;18.75;17.00;;;;;23.10;38.46;100453.31;4975893;28;45533;-79
2023/06/14 03:42:14;;;;;;;;;15.75;15.25;;;;;23.10;38.97;100472.84;4975442;28;45805;-80
2023/06/14 03:44:39;;;;;;;;;17.00;16.25;;;;;22.86;38.49;100449.19;4975381;28;45813;-79
2023/06/14 03:47:05;;;;;;;;;16.50;14.75;;;;;22.85;38.77;100450.22;4975258;28;45645;-80
2023/06/14 03:49:30;;;;;;;;;16.00;14.25;;;;;23.03;39.07;100479.97;4975727;28;45867;-79
2023/06/14 03:51:55;;;;;;;;;17.50;16.25;;;;;23.03;39.14;100471.97;4975006;28;47191;-80
2023/06/14 03:54:21;;;;;;;;;19.00;17.25;;;;;23.04;38.63;100473.63;4975044;28;46245;-81
2023/06/14 03:56:47;;;;;;;;;16.25;14.25;;;;;22.95;39.18;100464.06;4974426;28;45662;-80
2023/06/14 03:59:14;;;;;;;;;17.75;16.25;;;;;23.06;38.57;100484.09;4974771;28;45771;-80
2023/06/14 04:01:45;;;;;;;;;16.00;16.00;;;;;23.03;38.62;100477.31;4974581;28;46572;-79
2023/06/14 04:07:39;;;;;;;;;18.50;17.50;;;;;22.94;38.68;100478.47;4974564;28;45734;-79
2023/06/14 04:10:08;;;;;;;;;16.25;14.50;;;;;22.80;39.37;100458.81;4974984;28;45662;-79
2023/06/14 04:12:33;;;;;;;;;17.00;16.75;;;;;22.93;38.90;100488.34;4974309;28;46919;-78
2023/06/14 04:15:00;;;;;;;;;16.00;16.00;;;;;22.93;39.33;100492.84;4974491;28;46147;-80
2023/06/14 04:17:26;;;;;;;;;16.00;15.50;;;;;22.81;39.00;100470.31;4974767;28;45584;-81
2023/06/14 04:19:51;;;;;;;;;17.50;16.75;;;;;22.88;39.63;100484.59;4974987;28;45521;-78
2023/06/14 04:22:16;;;;;;;;;19.50;17.75;;;;;22.82;39.40;100472.81;4974319;28;46595;-80
2023/06/14 04:24:42;;;;;;;;;16.75;15.50;;;;;22.93;39.45;100490.19;4974708;28;45631;-80
2023/06/14 04:27:07;;;;;;;;;17.00;16.00;;;;;22.95;38.97;100502.31;4974629;28;45703;-79
2023/06/14 04:29:33;;;;;;;;;16.25;15.50;;;;;22.94;39.54;100499.84;4974810;28;45836;-79
2023/06/14 04:31:59;;;;;;;;;14.00;13.50;;;;;22.91;39.10;100500.22;4974281;28;46557;-80
2023/06/14 04:37:46;;;;;;;;;17.00;15.75;;;;;22.82;39.58;100504.03;4974498;28;45700;-79
2023/06/14 04:40:12;;;;;;;;;15.50;14.50;;;;;22.81;39.04;100500.53;4974692;28;45722;-80
2023/06/14 04:42:38;;;;;;;;;17.25;17.25;;;;;22.76;39.01;100500.28;4974597;28;46387;-79
2023/06/14 04:45:03;;;;;;;;;19.50;17.75;;;;;22.78;39.70;100506.25;4974545;28;46375;-78
2023/06/14 04:47:29;;;;;;;;;16.75;16.75;;;;;22.77;39.26;100504.63;4974104;28;45518;-80
2023/06/14 04:53:16;;;;;;;;;18.00;16.25;;;;;22.84;39.25;100518.84;4974270;28;45586;-80
2023/06/14 04:55:44;;;;;;;;;17.00;16.00;;;;;22.82;39.17;100518.22;4973755;28;47457;-79
2023/06/14 04:58:12;;;;;;;;;17.25;15.00;;;;;22.81;39.48;100516.56;4974247;28;45496;-79
2023/06/14 05:00:38;;;;;;;;;16.50;14.75;;;;;22.66;39.34;100497.09;4974548;28;45731;-78
2023/06/14 05:03:05;;;;;;;;;15.25;14.25;;;;;22.76;39.20;100502.13;4973963;28;45654;-79
2023/06/14 05:05:31;;;;;;;;;19.50;17.25;;;;;22.74;39.09;100504.16;4973807;28;46325;-79
2023/06/14 05:07:57;;;;;;;;;13.00;13.00;;;;;22.80;39.08;100519.44;4973009;28;45571;-80
2023/06/14 05:10:22;;;;;;;;;19.00;16.00;;;;;22.74;39.54;100504.16;4974271;28;45605;-80
2023/06/14 05:12:48;;;;;;;;;17.75;16.00;;;;;22.80;39.74;100519.44;4973944;28;45545;-79
2023/06/14 05:15:14;;;;;;;;;18.75;17.00;;;;;22.78;39.67;100521.47;4973852;28;46079;-79
2023/06/14 05:17:40;;;;;;;;;18.25;17.25;;;;;22.78;39.41;100518.81;4973582;28;45934;-79
2023/06/14 05:23:40;;;;;;;;;15.75;14.75;;;;;22.78;39.56;100524.16;4964669;28;46419;-80
2023/06/14 05:26:06;;;;;;;;;16.25;16.00;;;;;22.79;39.26;100523.13;4973361;28;46542;-79
2023/06/14 05:28:31;;;;;;;;;16.50;16.25;;;;;22.74;39.80;100507.66;4973887;28;45651;-81
2023/06/14 05:30:58;;;;;;;;;17.75;15.00;;;;;22.82;39.78;100520.91;4974088;28;45739;-80
2023/06/14 05:33:23;;;;;;;;;18.50;16.75;;;;;22.81;39.68;100519.25;4973992;28;46403;-80
2023/06/14 05:35:48;;;;;;;;;15.50;14.25;;;;;22.85;39.39;100523.19;4973714;28;46181;-81
2023/06/14 05:38:14;;;;;;;;;14.75;13.75;;;;;22.92;39.31;100534.78;4974003;28;45723;-79
2023/06/14 05:40:39;;;;;;;;;22.50;18.50;;;;;22.90;39.44;100519.94;4973809;28;45615;-79
2023/06/14 05:43:04;;;;;;;;;20.00;18.00;;;;;22.64;39.42;100469.72;4976404;28;45817;-86
2023/06/14 05:45:30;;;;;;;;;18.50;16.00;;;;;23.01;39.02;100530.94;4976459;28;48292;-88
2023/06/14 05:47:55;;;;;;;;;20.75;19.00;;;;;22.84;39.47;100510.00;4960123;28;45776;-86
2023/06/14 05:53:42;;;;;;;;;17.25;17.25;;;;;23.06;38.89;100532.22;4976056;28;46063;-81
2023/06/14 05:56:08;;;;;;;;;18.50;17.50;;;;;22.99;38.56;100516.97;4976305;28;45746;-87
2023/06/14 05:58:33;;;;;;;;;16.25;15.50;;;;;23.06;38.54;100527.69;4976080;28;45672;-83
2023/06/14 06:00:59;;;;;;;;;19.75;18.75;;;;;23.12;38.67;100540.28;4974931;28;45756;-85
2023/06/14 06:03:24;;;;;;;;;15.75;15.25;;;;;23.14;38.27;100540.94;4975067;28;46485;-86
2023/06/14 06:09:11;;;;;;;;;13.25;13.00;;;;;23.07;38.75;100532.03;4973127;28;45537;-81
2023/06/14 06:11:37;;;;;;;;;17.00;15.00;;;;;23.17;38.02;100545.88;4973253;28;45837;-82
2023/06/14 06:14:02;;;;;;;;;14.25;14.25;;;;;23.22;38.74;100551.50;4973281;28;45669;-78
2023/06/14 06:16:27;;;;;;;;;17.00;16.50;;;;;23.17;37.92;100535.19;4973144;28;46383;-78
2023/06/14 06:18:53;;;;;;;;;16.50;15.50;;;;;23.20;38.20;100537.50;4972764;28;46095;-77
2023/06/14 06:21:18;;;;;;;;;16.00;14.00;;;;;23.22;37.50;100543.47;4973003;28;46011;-81
2023/06/14 06:23:44;;;;;;;;;18.50;15.75;;;;;23.34;37.02;100546.44;4972726;28;46599;-80
2023/06/14 06:26:09;;;;;;;;;16.75;16.00;;;;;23.34;37.92;100547.28;4972566;28;46261;-79
2023/06/14 06:28:35;;;;;;;;;17.00;16.25;;;;;23.38;37.26;100551.22;4973141;28;45744;-79
2023/06/14 06:31:00;;;;;;;;;18.00;17.50;;;;;23.46;37.06;100560.97;4973054;28;45837;-79
2023/06/14 06:33:26;;;;;;;;;17.75;16.25;;;;;23.50;37.21;100559.56;4972396;28;46517;-78
2023/06/14 06:39:14;;;;;;;;;15.50;14.75;;;;;23.42;36.84;100536.47;4972788;28;46105;-78
2023/06/14 06:41:39;;;;;;;;;17.50;16.25;;;;;23.59;37.36;100566.41;4972990;28;45699;-79
2023/06/14 06:44:06;;;;;;;;;16.50;15.50;;;;;23.64;36.27;100568.53;4972550;28;46820;-79
2023/06/14 06:46:33;;;;;;;;;17.25;15.50;;;;;23.69;36.43;100564.25;4972559;28;45859;-79
2023/06/14 06:48:58;;;;;;;;;17.25;17.00;;;;;23.67;36.49;100563.63;4972414;28;45513;-80
2023/06/14 06:54:46;;;;;;;;;16.00;15.25;;;;;23.82;36.53;100571.53;4972718;28;46062;-80
2023/06/14 06:57:12;;;;;;;;;16.75;14.25;;;;;23.88;36.44;100567.25;4972758;28;46178;-80
2023/06/14 06:59:37;;;;;;;;;17.00;16.00;;;;;23.92;36.28;100571.16;4972955;28;45666;-80
2023/06/14 07:02:03;;;;;;;;;14.25;12.25;;;;;23.94;36.22;100569.97;4972729;28;45429;-78
2023/06/14 07:04:28;;;;;;;;;14.00;13.25;;;;;24.00;35.42;100579.88;4972426;28;46453;-80
2023/06/14 07:06:54;;;;;;;;;14.75;14.75;;;;;24.03;35.59;100570.63;4972285;28;45598;-79
2023/06/14 07:09:20;;;;;;;;;15.75;15.00;;;;;24.11;35.79;100581.19;4972593;28;45647;-79
2023/06/14 07:11:46;;;;;;;;;17.00;15.50;;;;;24.12;35.25;100580.16;4972572;28;45730;-79
2023/06/14 07:14:12;;;;;;;;;19.00;18.25;;;;;24.19;34.77;100591.75;4972281;28;46715;-80
2023/06/14 07:16:37;;;;;;;;;18.00;16.25;;;;;24.15;34.46;100580.59;4972341;28;45759;-78
2023/06/14 07:19:03;;;;;;;;;15.25;14.75;;;;;24.27;34.55;100590.78;4972190;28;45853;-78
2023/06/14 07:24:50;;;;;;;;;19.75;16.25;;;;;24.35;34.39;100601.31;4960563;28;46065;-78
2023/06/14 07:27:15;;;;;;;;;18.50;17.50;;;;;24.31;33.74;100597.38;4970860;28;45792;-79
2023/06/14 07:29:41;;;;;;;;;18.00;17.00;;;;;24.17;34.29;100573.22;4971375;28;45601;-78
2023/06/14 07:32:07;;;;;;;;;17.50;16.25;;;;;24.40;34.84;100609.59;4973212;28;45722;-78
2023/06/14 07:34:32;;;;;;;;;16.50;16.50;;;;;24.42;34.41;100608.34;4974527;28;45612;-78
2023/06/14 07:36:59;;;;;;;;;18.00;16.25;;;;;24.49;34.39;100614.59;4974308;28;46112;-77
2023/06/14 07:39:24;;;;;;;;;17.50;16.00;;;;;24.53;34.40;100615.00;4974662;28;45637;-77
2023/06/14 07:41:49;;;;;;;;;17.25;16.25;;;;;24.55;33.84;100613.78;4974602;28;45636;-80
2023/06/14 07:44:16;;;;;;;;;19.25;17.50;;;;;24.48;34.31;100596.84;4974742;28;45674;-79
2023/06/14 07:46:41;;;;;;;;;17.25;16.00;;;;;24.59;33.67;100615.03;4974596;28;45963;-80
2023/06/14 07:49:06;;;;;;;;;16.75;14.25;;;;;24.58;33.72;100601.81;4974668;28;45668;-77
2023/06/14 07:54:54;;;;;;;;;16.00;15.00;;;;;24.70;33.39;100604.75;4974160;28;46095;-81
2023/06/14 07:57:20;;;;;;;;;17.00;16.75;;;;;24.72;32.92;100613.44;4974570;28;45750;-78
2023/06/14 07:59:45;;;;;;;;;17.50;16.50;;;;;24.80;33.20;100618.59;4975276;28;45697;-79
2023/06/14 08:02:11;;;;;;;;;16.25;14.50;;;;;24.79;32.94;100616.94;4974845;28;45784;-78
2023/06/14 08:04:36;;;;;;;;;15.00;14.00;;;;;24.84;32.91;100620.69;4974335;28;45520;-78
2023/06/14 08:10:23;;;;;;;;;18.00;15.50;;;;;24.90;32.69;100619.91;4973834;28;45686;-79
2023/06/14 08:12:49;;;;;;;;;17.25;16.00;;;;;24.98;32.73;100625.09;4974280;28;45561;-80
2023/06/14 08:15:15;;;;;;;;;16.00;15.25;;;;;25.00;32.45;100622.19;4972385;28;46638;-78
2023/06/14 08:17:43;;;;;;;;;18.00;16.00;;;;;25.06;31.51;100626.75;4972670;28;47042;-79
2023/06/14 08:20:09;;;;;;;;;16.75;13.00;;;;;25.08;31.36;100628.22;4974210;28;45786;-81
2023/06/14 08:22:36;;;;;;;;;14.00;12.75;;;;;25.08;31.43;100625.53;4974483;28;45765;-80
2023/06/14 08:25:01;;;;;;;;;13.33;13.00;;;;;25.05;31.89;100617.06;4934508;28;1148635;-78
2023/06/14 08:27:27;;;;;;;;;14.25;13.25;;;;;25.20;31.31;100631.13;4973221;28;48448;-82
2023/06/14 08:29:53;;;;;;;;;14.75;13.75;;;;;25.18;30.94;100619.78;4975612;28;45754;-80
2023/06/14 08:32:19;;;;;;;;;15.75;13.75;;;;;25.15;30.79;100606.78;4975536;28;45584;-79
2023/06/14 08:34:44;;;;;;;;;15.75;13.75;;;;;25.29;30.97;100629.06;4975527;28;46523;-80
2023/06/14 08:40:36;;;;;;;;;15.50;12.75;;;;;25.39;30.64;100616.06;4974666;28;45769;-78
2023/06/14 08:43:02;;;;;;;;;13.25;12.75;;;;;25.51;30.22;100619.81;4956327;28;45879;-79
2023/06/14 08:45:27;;;;;;;;;15.75;14.25;;;;;25.56;30.22;100633.47;4973001;28;48679;-83
2023/06/14 08:47:57;;;;;;;;;14.25;13.00;;;;;25.59;29.09;100627.66;4974633;28;46119;-80
2023/06/14 08:50:26;;;;;;;;;14.50;14.50;;;;;25.58;29.48;100618.00;4974669;28;45775;-80
2023/06/14 08:52:57;;;;;;;;;13.75;12.50;;;;;25.69;29.50;100640.69;4975145;28;45892;-79
2023/06/14 08:55:25;;;;;;;;;13.00;12.75;;;;;25.73;29.77;100629.34;4974442;28;45631;-80
2023/06/14 08:57:53;;;;;;;;;16.25;15.00;;;;;25.64;29.26;100610.97;4974380;28;46127;-79
2023/06/14 09:00:20;;;;;;;;;11.00;10.25;;;;;25.80;28.93;100630.13;4974272;28;45597;-80
2023/06/14 09:02:46;;;;;;;;;13.50;11.75;;;;;25.88;28.98;100632.63;4974363;28;45639;-81
2023/06/14 09:05:17;;;;;;;;;14.25;14.25;;;;;25.94;28.91;100635.50;4974091;28;46179;-78
2023/06/14 09:11:05;;;;;;;;;11.50;10.00;;;;;26.06;28.54;100628.47;4973929;28;45622;-79
2023/06/14 09:13:30;;;;;;;;;13.00;13.00;;;;;26.14;28.17;100637.13;4974652;28;45737;-81
2023/06/14 09:15:56;;;;;;;;;13.25;12.25;;;;;26.16;28.42;100635.06;4973943;28;45616;-81
2023/06/14 09:18:21;;;;;;;;;16.00;14.00;;;;;26.15;28.36;100619.97;4974350;28;45594;-80
2023/06/14 09:20:48;;;;;;;;;15.00;13.00;;;;;26.29;27.71;100634.22;4974331;28;45624;-81
2023/06/14 09:23:13;;;;;;;;;12.75;10.75;;;;;26.32;27.54;100636.50;4974612;28;45671;-79
2023/06/14 09:25:46;;;;;;;;;12.50;12.50;;;;;26.37;27.62;100630.50;4973756;28;46034;-77
2023/06/14 09:28:11;;;;;;;;;14.75;13.00;;;;;26.30;27.12;100627.81;4976339;28;45599;-80
2023/06/14 09:30:38;;;;;;;;;15.00;13.50;;;;;26.43;26.96;100638.53;4975013;28;45542;-82
2023/06/14 09:33:03;;;;;;;;;13.00;13.00;;;;;26.44;26.89;100642.06;4976572;28;45502;-82
2023/06/14 09:35:31;;;;;;;;;13.00;12.00;;;;;26.45;26.99;100639.13;4975072;28;45866;-80
2023/06/14 09:41:18;;;;;;;;;13.50;12.25;;;;;26.56;27.40;100648.44;4974099;28;45514;-80
2023/06/14 09:43:45;;;;;;;;;13.50;12.50;;;;;26.63;26.92;100651.91;4973729;28;45793;-82
2023/06/14 09:46:10;;;;;;;;;14.25;14.00;;;;;26.66;26.34;100646.13;4973066;28;46348;-80
2023/06/14 09:48:36;;;;;;;;;14.75;13.75;;;;;26.67;25.80;100651.25;4973618;28;45716;-79
2023/06/14 09:51:02;;;;;;;;;14.00;12.00;;;;;26.68;25.70;100649.41;4973704;28;46117;-79
2023/06/14 09:53:32;;;;;;;;;13.50;12.25;;;;;26.72;25.91;100653.34;4973425;28;45752;-80
2023/06/14 09:55:58;;;;;;;;;13.00;11.25;;;;;26.76;25.98;100656.41;4972851;28;47655;-80
2023/06/14 09:58:28;;;;;;;;;14.50;14.00;;;;;26.78;24.49;100649.75;4973181;28;46376;-81
2023/06/14 10:00:55;;;;;;;;;12.50;11.50;;;;;26.81;24.37;100661.97;4973454;28;46053;-81
2023/06/14 10:03:27;;;;;;;;;13.00;13.00;;;;;26.82;24.63;100650.19;4973860;28;45723;-81
2023/06/14 10:05:55;;;;;;;;;13.50;13.00;;;;;26.85;25.00;100655.13;4973351;28;46600;-80
2023/06/14 10:11:44;;;;;;;;;14.00;13.00;;;;;26.95;25.09;100652.81;4973158;28;45652;-82
2023/06/14 10:14:11;;;;;;;;;13.00;12.25;;;;;26.94;25.05;100638.53;4973501;28;45548;-79
2023/06/14 10:16:58;;;;;;;;;13.50;13.50;;;;;27.07;24.99;100651.09;4973152;28;45541;-78
2023/06/14 10:19:37;;;;;;;;;12.00;11.00;;;;;27.13;24.38;100655.63;4973354;28;46163;-79
2023/06/14 10:22:23;;;;;;;;;12.50;11.75;;;;;27.17;24.77;100656.84;4972900;28;45759;-79
2023/06/14 10:24:50;;;;;;;;;11.75;11.00;;;;;27.21;24.48;100649.97;4973093;28;45656;-79
2023/06/14 10:27:23;;;;;;;;;14.75;14.00;;;;;27.22;24.05;100657.00;4973012;28;46952;-80
2023/06/14 10:29:57;;;;;;;;;14.00;13.00;;;;;27.26;23.77;100652.84;4973168;28;46065;-80
2023/06/14 10:32:24;;;;;;;;;14.25;13.00;;;;;27.26;24.21;100647.47;4972952;28;45867;-78
2023/06/14 10:34:59;;;;;;;;;11.00;11.00;;;;;27.28;24.62;100649.94;4973380;28;45687;-77
2023/06/14 10:37:25;;;;;;;;;13.75;12.75;;;;;27.31;24.17;100649.53;4972883;28;46501;-78
2023/06/14 10:39:51;;;;;;;;;13.25;11.75;;;;;27.33;24.39;100653.63;4972917;28;45702;-80
2023/06/14 10:42:16;;;;;;;;;13.25;13.00;;;;;27.39;24.10;100660.84;4972707;28;45776;-79
2023/06/14 10:44:49;;;;;;;;;12.75;12.00;;;;;27.40;24.42;100646.34;4972813;28;45610;-81
2023/06/14 10:47:23;;;;;;;;;11.25;10.75;;;;;27.48;24.72;100650.63;4972736;28;45654;-79
2023/06/14 10:50:02;;;;;;;;;14.25;13.00;;;;;27.52;24.08;100650.03;4972704;28;45974;-79
2023/06/14 10:52:28;;;;;;;;;13.00;13.00;;;;;27.55;23.50;100646.88;4972449;28;45530;-79
2023/06/14 10:55:17;;;;;;;;;15.25;13.75;;;;;27.57;23.70;100643.16;4972720;28;45738;-81
2023/06/14 10:57:51;;;;;;;;;12.50;12.00;;;;;27.55;23.60;100646.06;4972490;28;47732;-81
2023/06/14 11:00:20;;;;;;;;;16.00;15.00;;;;;27.59;23.88;100638.34;4972431;28;46060;-79
2023/06/14 11:02:51;;;;;;;;;13.75;13.25;;;;;27.61;24.00;100634.41;4972642;28;45620;-78
2023/06/14 11:05:26;;;;;;;;;13.00;13.00;;;;;27.64;24.17;100633.97;4972484;28;45531;-79
2023/06/14 11:08:16;;;;;;;;;15.00;14.25;;;;;27.66;24.13;100637.28;4975201;28;45624;-80
2023/06/14 11:10:45;;;;;;;;;12.25;11.50;;;;;27.63;24.29;100626.13;4975761;28;46150;-80
2023/06/14 11:13:11;;;;;;;;;13.75;13.25;;;;;27.73;24.61;100637.22;4975751;28;45869;-79
2023/06/14 11:15:37;;;;;;;;;15.00;13.75;;;;;27.76;24.80;100639.47;4975936;28;45551;-80
2023/06/14 11:18:05;;;;;;;;;14.75;13.00;;;;;27.80;24.04;100640.69;4975887;28;45684;-79
2023/06/14 11:20:34;;;;;;;;;17.25;13.75;;;;;27.81;23.14;100639.63;4975622;28;45904;-79
2023/06/14 11:23:00;;;;;;;;;13.50;13.00;;;;;27.81;23.87;100631.53;4975661;28;45778;-78
2023/06/14 11:25:29;;;;;;;;;15.25;13.25;;;;;27.83;24.31;100629.47;4975292;28;45708;-78
2023/06/14 11:27:55;;;;;;;;;17.50;15.50;;;;;27.86;23.84;100627.13;4975473;28;45565;-79
2023/06/14 11:30:21;;;;;;;;;14.00;14.00;;;;;27.76;24.29;100597.19;4975344;28;46302;-78
2023/06/14 11:32:51;;;;;;;;;14.50;14.25;;;;;27.85;24.55;100603.16;4975710;28;45549;-78
2023/06/14 11:35:17;;;;;;;;;15.00;14.75;;;;;27.98;24.58;100625.38;4975386;28;45717;-78
2023/06/14 11:37:44;;;;;;;;;10.75;10.50;;;;;28.04;22.87;100639.00;4975345;28;45638;-80
2023/06/14 11:40:11;;;;;;;;;13.50;13.25;;;;;28.04;22.92;100626.34;4975191;28;45792;-79
2023/06/14 11:42:38;;;;;;;;;12.75;12.00;;;;;28.00;22.20;100622.47;4975527;28;45465;-78
2023/06/14 11:45:05;;;;;;;;;11.75;11.50;;;;;27.98;22.96;100629.94;4975392;28;45542;-80
2023/06/14 11:47:35;;;;;;;;;13.00;12.50;;;;;27.97;23.51;100622.91;4975022;28;47409;-80
2023/06/14 11:50:01;;;;;;;;;12.75;11.75;;;;;27.84;22.44;100598.78;4975394;28;46076;-77
2023/06/14 11:52:26;;;;;;;;;12.50;12.50;;;;;27.99;23.40;100631.59;4975765;28;45593;-81
2023/06/14 11:54:53;;;;;;;;;12.00;12.00;;;;;28.00;23.02;100633.25;4976819;28;45804;-79
2023/06/14 11:57:19;;;;;;;;;13.75;12.25;;;;;27.96;22.41;100619.38;4976328;28;45523;-81
2023/06/14 11:59:46;;;;;;;;;13.25;13.25;;;;;28.04;22.76;100629.06;4976443;28;45940;-80
2023/06/14 12:02:16;;;;;;;;;13.50;13.00;;;;;27.98;23.06;100611.06;4975843;28;45601;-80
2023/06/14 12:04:46;;;;;;;;;13.50;13.25;;;;;28.09;23.54;100626.50;4975452;28;45783;-81
2023/06/14 12:07:17;;;;;;;;;12.50;12.25;;;;;28.13;23.86;100626.91;4974921;28;47500;-79
2023/06/14 12:10:02;;;;;;;;;19.25;18.25;;;;;28.19;23.16;100636.78;4975564;28;47109;-79
2023/06/14 12:12:29;;;;;;;;;15.00;14.75;;;;;28.23;23.46;100627.25;4975799;28;45778;-80
2023/06/14 12:14:57;;;;;;;;;12.00;11.00;;;;;28.21;22.04;100627.47;4975673;28;45671;-81
2023/06/14 12:17:23;;;;;;;;;15.50;13.25;;;;;28.19;21.83;100626.84;4975051;28;45690;-79
2023/06/14 12:19:50;;;;;;;;;13.00;12.25;;;;;28.17;22.41;100630.81;4975506;28;45710;-80
2023/06/14 12:22:16;;;;;;;;;13.50;13.50;;;;;28.18;22.47;100629.78;4975224;28;45612;-80
2023/06/14 12:28:17;;;;;;;;;12.50;12.00;;;;;28.22;22.64;100623.72;4966367;28;45911;-80
2023/06/14 12:30:43;;;;;;;;;13.75;13.00;;;;;28.16;22.85;100610.31;4974748;28;45851;-79